sensor_id;sensor_type;location;lat;lon;timestamp;pressure;altitude;pressure_sealevel;temperature;humidity
30967;BME280;17649;51.836;8.330;2022-11-15T00:02:43;100480.50;;;9.98;100.00
30967;BME280;17649;51.836;8.330;2022-11-15T00:05:44;100483.97;;;9.97;100.00
30967;BME280;17649;51.836;8.330;2022-11-15T00:08:44;100483.75;;;10.01;100.00
30967;BME280;17649;51.836;8.330;2022-11-15T00:11:44;100484.25;;;10.08;100.00
30967;BME280;17649;51.836;8.330;2022-11-15T00:14:44;100477.31;;;10.08;100.00
30967;BME280;17649;51.836;8.330;2022-11-15T00:17:48;100471.84;;;9.99;100.00
30967;BME280;17649;51.836;8.330;2022-11-15T00:20:48;100470.81;;;10.01;100.00
30967;BME280;17649;51.836;8.330;2022-11-15T00:23:48;100472.97;;;10.09;100.00
30967;BME280;17649;51.836;8.330;2022-11-15T00:26:48;100465.81;;;10.14;100.00
30967;BME280;17649;51.836;8.330;2022-11-15T00:29:48;100470.81;;;10.17;100.00
30967;BME280;17649;51.836;8.330;2022-11-15T00:32:49;100460.78;;;10.11;100.00
30967;BME280;17649;51.836;8.330;2022-11-15T00:35:49;100465.66;;;10.17;100.00
30967;BME280;17649;51.836;8.330;2022-11-15T00:38:50;100467.47;;;10.15;100.00
30967;BME280;17649;51.836;8.330;2022-11-15T00:41:50;100462.03;;;10.20;100.00
30967;BME280;17649;51.836;8.330;2022-11-15T00:44:50;100450.22;;;10.15;100.00
30967;BME280;17649;51.836;8.330;2022-11-15T00:47:50;100457.47;;;10.09;100.00
30967;BME280;17649;51.836;8.330;2022-11-15T00:50:51;100447.88;;;10.11;100.00
30967;BME280;17649;51.836;8.330;2022-11-15T00:53:51;100448.78;;;10.10;100.00
30967;BME280;17649;51.836;8.330;2022-11-15T00:56:51;100448.78;;;10.10;100.00
30967;BME280;17649;51.836;8.330;2022-11-15T00:59:51;100444.41;;;10.12;100.00
30967;BME280;17649;51.836;8.330;2022-11-15T01:02:52;100434.28;;;10.07;100.00
30967;BME280;17649;51.836;8.330;2022-11-15T01:05:52;100437.47;;;9.97;100.00
30967;BME280;17649;51.836;8.330;2022-11-15T01:08:52;100432.97;;;10.00;100.00
30967;BME280;17649;51.836;8.330;2022-11-15T01:11:52;100426.78;;;10.03;100.00
30967;BME280;17649;51.836;8.330;2022-11-15T01:14:52;100419.78;;;10.05;100.00
30967;BME280;17649;51.836;8.330;2022-11-15T01:17:53;100420.78;;;10.02;100.00
30967;BME280;17649;51.836;8.330;2022-11-15T01:20:53;100412.94;;;10.04;100.00
30967;BME280;17649;51.836;8.330;2022-11-15T01:23:53;100408.69;;;10.03;100.00
30967;BME280;17649;51.836;8.330;2022-11-15T01:26:54;100403.38;;;9.90;100.00
30967;BME280;17649;51.836;8.330;2022-11-15T01:29:54;100405.97;;;9.74;100.00
30967;BME280;17649;51.836;8.330;2022-11-15T01:32:54;100403.31;;;9.60;100.00
30967;BME280;17649;51.836;8.330;2022-11-15T01:35:55;100408.91;;;9.52;100.00
30967;BME280;17649;51.836;8.330;2022-11-15T01:38:56;100408.31;;;9.47;100.00
30967;BME280;17649;51.836;8.330;2022-11-15T01:41:56;100402.97;;;9.50;100.00
30967;BME280;17649;51.836;8.330;2022-11-15T01:44:56;100411.06;;;9.44;100.00
30967;BME280;17649;51.836;8.330;2022-11-15T01:47:56;100412.63;;;9.47;100.00
30967;BME280;17649;51.836;8.330;2022-11-15T01:50:57;100407.06;;;9.54;100.00
30967;BME280;17649;51.836;8.330;2022-11-15T01:53:59;100412.97;;;9.56;100.00
30967;BME280;17649;51.836;8.330;2022-11-15T01:57:04;100407.66;;;9.60;100.00
30967;BME280;17649;51.836;8.330;2022-11-15T02:00:06;100406.06;;;9.57;100.00
30967;BME280;17649;51.836;8.330;2022-11-15T02:03:06;100401.91;;;9.54;100.00
30967;BME280;17649;51.836;8.330;2022-11-15T02:06:07;100403.97;;;9.64;100.00
30967;BME280;17649;51.836;8.330;2022-11-15T02:09:07;100403.47;;;9.73;100.00
30967;BME280;17649;51.836;8.330;2022-11-15T02:12:08;100404.97;;;9.77;100.00
30967;BME280;17649;51.836;8.330;2022-11-15T02:15:09;100401.97;;;9.84;100.00
30967;BME280;17649;51.836;8.330;2022-11-15T02:18:12;100402.47;;;9.91;100.00
30967;BME280;17649;51.836;8.330;2022-11-15T02:24:54;100390.59;;;10.03;100.00
30967;BME280;17649;51.836;8.330;2022-11-15T02:28:10;100384.06;;;10.11;100.00
30967;BME280;17649;51.836;8.330;2022-11-15T02:34:32;100392.91;;;10.23;100.00
30967;BME280;17649;51.836;8.330;2022-11-15T02:37:42;100393.41;;;10.30;100.00
30967;BME280;17649;51.836;8.330;2022-11-15T02:40:45;100389.63;;;10.35;100.00
30967;BME280;17649;51.836;8.330;2022-11-15T02:46:59;100392.53;;;10.45;100.00
30967;BME280;17649;51.836;8.330;2022-11-15T02:50:15;100386.16;;;10.51;100.00
30967;BME280;17649;51.836;8.330;2022-11-15T02:53:16;100383.22;;;10.57;100.00
30967;BME280;17649;51.836;8.330;2022-11-15T02:56:16;100380.28;;;10.63;100.00
30967;BME280;17649;51.836;8.330;2022-11-15T03:05:37;100369.47;;;10.85;100.00
30967;BME280;17649;51.836;8.330;2022-11-15T03:11:46;100375.22;;;10.90;100.00
30967;BME280;17649;51.836;8.330;2022-11-15T03:14:52;100379.38;;;10.92;100.00
30967;BME280;17649;51.836;8.330;2022-11-15T03:18:02;100373.91;;;10.97;100.00
30967;BME280;17649;51.836;8.330;2022-11-15T03:21:05;100378.81;;;11.01;100.00
30967;BME280;17649;51.836;8.330;2022-11-15T03:24:08;100374.47;;;11.02;100.00
30967;BME280;17649;51.836;8.330;2022-11-15T03:27:08;100373.56;;;11.03;100.00
30967;BME280;17649;51.836;8.330;2022-11-15T03:30:11;100370.88;;;11.04;100.00
30967;BME280;17649;51.836;8.330;2022-11-15T03:33:12;100371.78;;;11.03;100.00
30967;BME280;17649;51.836;8.330;2022-11-15T03:36:12;100377.97;;;11.01;100.00
30967;BME280;17649;51.836;8.330;2022-11-15T03:39:12;100375.66;;;10.96;100.00
30967;BME280;17649;51.836;8.330;2022-11-15T03:42:26;100384.16;;;10.98;100.00
30967;BME280;17649;51.836;8.330;2022-11-15T03:45:30;100380.75;;;10.98;100.00
30967;BME280;17649;51.836;8.330;2022-11-15T03:48:37;100378.81;;;11.01;100.00
30967;BME280;17649;51.836;8.330;2022-11-15T03:51:39;100380.38;;;11.04;100.00
30967;BME280;17649;51.836;8.330;2022-11-15T03:54:51;100382.06;;;11.05;100.00
30967;BME280;17649;51.836;8.330;2022-11-15T03:57:53;100379.38;;;11.07;100.00
30967;BME280;17649;51.836;8.330;2022-11-15T04:00:54;100382.06;;;11.05;100.00
30967;BME280;17649;51.836;8.330;2022-11-15T04:03:55;100375.84;;;11.08;100.00
30967;BME280;17649;51.836;8.330;2022-11-15T04:06:55;100374.09;;;11.08;100.00
30967;BME280;17649;51.836;8.330;2022-11-15T04:09:55;100377.50;;;11.09;100.00
30967;BME280;17649;51.836;8.330;2022-11-15T04:13:05;100364.47;;;11.10;100.00
30967;BME280;17649;51.836;8.330;2022-11-15T04:16:05;100368.91;;;11.08;100.00
30967;BME280;17649;51.836;8.330;2022-11-15T04:19:06;100364.56;;;11.09;100.00
30967;BME280;17649;51.836;8.330;2022-11-15T04:22:24;100365.50;;;11.08;100.00
30967;BME280;17649;51.836;8.330;2022-11-15T04:25:43;100373.34;;;11.06;100.00
30967;BME280;17649;51.836;8.330;2022-11-15T04:28:44;100382.97;;;11.04;100.00
30967;BME280;17649;51.836;8.330;2022-11-15T04:32:03;100380.38;;;11.04;100.00
30967;BME280;17649;51.836;8.330;2022-11-15T04:35:04;100379.56;;;11.03;100.00
30967;BME280;17649;51.836;8.330;2022-11-15T04:38:04;100379.56;;;11.03;100.00
30967;BME280;17649;51.836;8.330;2022-11-15T04:41:05;100381.47;;;11.00;100.00
30967;BME280;17649;51.836;8.330;2022-11-15T04:44:05;100380.50;;;11.02;100.00
30967;BME280;17649;51.836;8.330;2022-11-15T04:47:05;100377.22;;;10.99;100.00
30967;BME280;17649;51.836;8.330;2022-11-15T04:50:06;100382.59;;;10.96;100.00
30967;BME280;17649;51.836;8.330;2022-11-15T04:53:06;100373.06;;;10.96;100.00
30967;BME280;17649;51.836;8.330;2022-11-15T04:56:06;100366.97;;;10.97;100.00
30967;BME280;17649;51.836;8.330;2022-11-15T04:59:07;100362.72;;;10.96;100.00
30967;BME280;17649;51.836;8.330;2022-11-15T05:02:07;100365.31;;;10.96;100.00
30967;BME280;17649;51.836;8.330;2022-11-15T05:05:07;100366.44;;;10.92;100.00
30967;BME280;17649;51.836;8.330;2022-11-15T05:08:10;100366.97;;;10.97;100.00
30967;BME280;17649;51.836;8.330;2022-11-15T05:11:21;100366.78;;;11.00;100.00
30967;BME280;17649;51.836;8.330;2022-11-15T05:14:25;100373.56;;;11.03;100.00
30967;BME280;17649;51.836;8.330;2022-11-15T05:20:44;100374.19;;;11.07;100.00
30967;BME280;17649;51.836;8.330;2022-11-15T05:23:50;100370.47;;;11.11;100.00
30967;BME280;17649;51.836;8.330;2022-11-15T05:27:02;100367.34;;;11.05;100.00
30967;BME280;17649;51.836;8.330;2022-11-15T05:30:02;100369.19;;;11.03;100.00
30967;BME280;17649;51.836;8.330;2022-11-15T05:33:08;100362.16;;;11.05;100.00
30967;BME280;17649;51.836;8.330;2022-11-15T05:39:47;100355.88;;;11.10;100.00
30967;BME280;17649;51.836;8.330;2022-11-15T05:42:47;100360.22;;;11.09;100.00
30967;BME280;17649;51.836;8.330;2022-11-15T05:45:50;100353.28;;;11.10;100.00
30967;BME280;17649;51.836;8.330;2022-11-15T05:48:51;100354.00;;;11.12;100.00
30967;BME280;17649;51.836;8.330;2022-11-15T05:51:57;100348.09;;;11.10;100.00
30967;BME280;17649;51.836;8.330;2022-11-15T05:54:58;100351.31;;;11.13;100.00
30967;BME280;17649;51.836;8.330;2022-11-15T05:58:04;100352.25;;;11.12;100.00
30967;BME280;17649;51.836;8.330;2022-11-15T06:01:07;100348.75;;;11.13;100.00
30967;BME280;17649;51.836;8.330;2022-11-15T06:04:08;100344.78;;;11.08;100.00
30967;BME280;17649;51.836;8.330;2022-11-15T06:07:08;100351.53;;;11.10;100.00
30967;BME280;17649;51.836;8.330;2022-11-15T06:10:08;100348.66;;;11.00;100.00
30967;BME280;17649;51.836;8.330;2022-11-15T06:13:08;100340.72;;;11.03;100.00
30967;BME280;17649;51.836;8.330;2022-11-15T06:16:09;100348.94;;;11.10;100.00
30967;BME280;17649;51.836;8.330;2022-11-15T06:19:09;100347.19;;;11.11;100.00
30967;BME280;17649;51.836;8.330;2022-11-15T06:22:09;100352.81;;;11.17;100.00
30967;BME280;17649;51.836;8.330;2022-11-15T06:25:10;100353.38;;;11.22;100.00
30967;BME280;17649;51.836;8.330;2022-11-15T06:28:10;100351.81;;;11.20;100.00
30967;BME280;17649;51.836;8.330;2022-11-15T06:31:10;100367.69;;;11.28;100.00
30967;BME280;17649;51.836;8.330;2022-11-15T06:34:11;100359.56;;;11.20;100.00
30967;BME280;17649;51.836;8.330;2022-11-15T06:37:11;100358.97;;;11.29;100.00
30967;BME280;17649;51.836;8.330;2022-11-15T06:40:11;100358.81;;;11.32;100.00
30967;BME280;17649;51.836;8.330;2022-11-15T06:43:11;100363.16;;;11.31;100.00
30967;BME280;17649;51.836;8.330;2022-11-15T06:46:12;100362.88;;;11.36;100.00
30967;BME280;17649;51.836;8.330;2022-11-15T06:49:12;100370.34;;;11.41;100.00
30967;BME280;17649;51.836;8.330;2022-11-15T06:52:12;100373.03;;;11.39;100.00
30967;BME280;17649;51.836;8.330;2022-11-15T06:55:13;100368.50;;;11.43;100.00
30967;BME280;17649;51.836;8.330;2022-11-15T06:58:13;100371.91;;;11.43;100.00
30967;BME280;17649;51.836;8.330;2022-11-15T07:01:13;100385.22;;;11.51;100.00
30967;BME280;17649;51.836;8.330;2022-11-15T07:04:13;100386.69;;;11.55;100.00
30967;BME280;17649;51.836;8.330;2022-11-15T07:07:33;100380.38;;;11.59;100.00
30967;BME280;17649;51.836;8.330;2022-11-15T07:10:41;100390.28;;;11.67;100.00
30967;BME280;17649;51.836;8.330;2022-11-15T07:27:26;100394.78;;;11.92;100.00
30967;BME280;17649;51.836;8.330;2022-11-15T07:44:30;100393.31;;;12.28;100.00
30967;BME280;17649;51.836;8.330;2022-11-15T07:51:16;100393.97;;;12.44;100.00
30967;BME280;17649;51.836;8.330;2022-11-15T07:54:22;100388.78;;;12.57;100.00
30967;BME280;17649;51.836;8.330;2022-11-15T07:57:22;100385.50;;;12.67;100.00
30967;BME280;17649;51.836;8.330;2022-11-15T08:00:35;100389.75;;;12.68;100.00
30967;BME280;17649;51.836;8.330;2022-11-15T08:03:36;100388.81;;;12.69;100.00
30967;BME280;17649;51.836;8.330;2022-11-15T08:06:38;100397.75;;;12.65;100.00
30967;BME280;17649;51.836;8.330;2022-11-15T08:09:48;100394.41;;;12.63;100.00
30967;BME280;17649;51.836;8.330;2022-11-15T08:12:55;100396.25;;;12.61;100.00
30967;BME280;17649;51.836;8.330;2022-11-15T08:16:00;100386.50;;;12.77;100.00
30967;BME280;17649;51.836;8.330;2022-11-15T08:19:23;100378.00;;;12.88;100.00
30967;BME280;17649;51.836;8.330;2022-11-15T08:22:27;100370.41;;;12.98;100.00
30967;BME280;17649;51.836;8.330;2022-11-15T08:25:31;100372.06;;;12.99;100.00
30967;BME280;17649;51.836;8.330;2022-11-15T08:28:32;100375.19;;;13.04;100.00
30967;BME280;17649;51.836;8.330;2022-11-15T08:31:35;100363.00;;;13.17;100.00
30967;BME280;17649;51.836;8.330;2022-11-15T08:34:39;100366.00;;;13.36;100.00
30967;BME280;17649;51.836;8.330;2022-11-15T08:37:45;100365.81;;;13.39;100.00
30967;BME280;17649;51.836;8.330;2022-11-15T08:40:45;100363.88;;;13.54;100.00
30967;BME280;17649;51.836;8.330;2022-11-15T08:43:48;100363.91;;;13.65;100.00
30967;BME280;17649;51.836;8.330;2022-11-15T08:50:28;100361.69;;;13.85;100.00
30967;BME280;17649;51.836;8.330;2022-11-15T08:53:28;100353.97;;;13.83;100.00
30967;BME280;17649;51.836;8.330;2022-11-15T08:56:31;100356.13;;;13.89;100.00
30967;BME280;17649;51.836;8.330;2022-11-15T08:59:39;100354.28;;;14.02;100.00
30967;BME280;17649;51.836;8.330;2022-11-15T09:02:48;100361.69;;;13.96;100.00
30967;BME280;17649;51.836;8.330;2022-11-15T09:06:17;100355.84;;;14.05;100.00
30967;BME280;17649;51.836;8.330;2022-11-15T09:09:20;100360.44;;;14.01;100.00
30967;BME280;17649;51.836;8.330;2022-11-15T09:12:25;100362.34;;;14.11;100.00
30967;BME280;17649;51.836;8.330;2022-11-15T09:15:38;100361.16;;;14.03;100.00
30967;BME280;17649;51.836;8.330;2022-11-15T09:18:57;100359.56;;;14.25;100.00
30967;BME280;17649;51.836;8.330;2022-11-15T09:25:26;100358.28;;;14.30;100.00
30967;BME280;17649;51.836;8.330;2022-11-15T09:28:47;100355.88;;;14.27;100.00
30967;BME280;17649;51.836;8.330;2022-11-15T09:31:48;100358.88;;;14.34;100.00
30967;BME280;17649;51.836;8.330;2022-11-15T09:35:26;100351.00;;;14.58;100.00
30967;BME280;17649;51.836;8.330;2022-11-15T09:38:52;100354.94;;;14.64;100.00
30967;BME280;17649;51.836;8.330;2022-11-15T09:45:49;100348.41;;;14.47;100.00
30967;BME280;17649;51.836;8.330;2022-11-15T09:49:03;100346.41;;;14.50;100.00
30967;BME280;17649;51.836;8.330;2022-11-15T09:52:21;100334.81;;;14.54;100.00
30967;BME280;17649;51.836;8.330;2022-11-15T09:55:21;100341.94;;;14.64;100.00
30967;BME280;17649;51.836;8.330;2022-11-15T10:05:51;100330.47;;;14.77;100.00
30967;BME280;17649;51.836;8.330;2022-11-15T10:12:31;100324.25;;;15.23;100.00
30967;BME280;17649;51.836;8.330;2022-11-15T10:16:03;100306.47;;;15.17;100.00
30967;BME280;17649;51.836;8.330;2022-11-15T10:25:31;100297.13;;;15.14;100.00
30967;BME280;17649;51.836;8.330;2022-11-15T10:28:40;100290.28;;;15.02;100.00
30967;BME280;17649;51.836;8.330;2022-11-15T10:31:51;100288.88;;;15.09;100.00
30967;BME280;17649;51.836;8.330;2022-11-15T10:38:32;100264.50;;;15.74;100.00
30967;BME280;17649;51.836;8.330;2022-11-15T10:41:37;100263.44;;;16.70;100.00
30967;BME280;17649;51.836;8.330;2022-11-15T10:44:41;100258.00;;;16.92;100.00
30967;BME280;17649;51.836;8.330;2022-11-15T10:47:44;100262.44;;;16.40;100.00
30967;BME280;17649;51.836;8.330;2022-11-15T10:50:45;100248.22;;;16.85;100.00
30967;BME280;17649;51.836;8.330;2022-11-15T10:54:04;100230.25;;;16.30;100.00
30967;BME280;17649;51.836;8.330;2022-11-15T10:57:16;100239.28;;;16.57;100.00
30967;BME280;17649;51.836;8.330;2022-11-15T11:03:42;100236.34;;;16.50;100.00
30967;BME280;17649;51.836;8.330;2022-11-15T11:10:38;100228.03;;;17.25;100.00
30967;BME280;17649;51.836;8.330;2022-11-15T11:14:11;100229.03;;;17.44;100.00
30967;BME280;17649;51.836;8.330;2022-11-15T11:20:51;100214.00;;;17.07;100.00
30967;BME280;17649;51.836;8.330;2022-11-15T11:31:07;100185.00;;;19.15;100.00
30967;BME280;17649;51.836;8.330;2022-11-15T11:50:56;100155.19;;;19.16;100.00
30967;BME280;17649;51.836;8.330;2022-11-15T11:54:09;100154.00;;;18.93;100.00
30967;BME280;17649;51.836;8.330;2022-11-15T11:57:15;100147.63;;;18.50;100.00
30967;BME280;17649;51.836;8.330;2022-11-15T12:00:33;100149.00;;;17.80;100.00
30967;BME280;17649;51.836;8.330;2022-11-15T12:03:43;100140.97;;;18.01;100.00
30967;BME280;17649;51.836;8.330;2022-11-15T12:10:17;100136.88;;;17.88;100.00
30967;BME280;17649;51.836;8.330;2022-11-15T12:13:28;100141.47;;;18.59;100.00
30967;BME280;17649;51.836;8.330;2022-11-15T12:16:37;100134.94;;;19.26;100.00
30967;BME280;17649;51.836;8.330;2022-11-15T12:19:39;100127.94;;;19.79;100.00
30967;BME280;17649;51.836;8.330;2022-11-15T12:26:57;100122.63;;;21.54;100.00
30967;BME280;17649;51.836;8.330;2022-11-15T12:30:02;100121.56;;;20.49;100.00
30967;BME280;17649;51.836;8.330;2022-11-15T12:33:03;100107.25;;;20.02;100.00
30967;BME280;17649;51.836;8.330;2022-11-15T12:36:05;100107.34;;;19.92;100.00
30967;BME280;17649;51.836;8.330;2022-11-15T12:39:12;100106.47;;;20.17;100.00
30967;BME280;17649;51.836;8.330;2022-11-15T12:54:55;100084.56;;;22.82;79.65
30967;BME280;17649;51.836;8.330;2022-11-15T12:57:56;100079.13;;;23.07;80.76
30967;BME280;17649;51.836;8.330;2022-11-15T13:04:38;100072.22;;;22.52;75.57
30967;BME280;17649;51.836;8.330;2022-11-15T13:10:41;100077.97;;;20.31;100.00
30967;BME280;17649;51.836;8.330;2022-11-15T13:13:42;100064.38;;;18.44;100.00
30967;BME280;17649;51.836;8.330;2022-11-15T13:16:42;100055.06;;;17.86;100.00
30967;BME280;17649;51.836;8.330;2022-11-15T13:19:43;100067.97;;;17.51;100.00
30967;BME280;17649;51.836;8.330;2022-11-15T13:23:02;100060.25;;;17.49;100.00
30967;BME280;17649;51.836;8.330;2022-11-15T13:26:08;100060.56;;;17.37;100.00
30967;BME280;17649;51.836;8.330;2022-11-15T13:29:17;100056.06;;;17.10;100.00
30967;BME280;17649;51.836;8.330;2022-11-15T13:32:18;100052.94;;;16.87;100.00
30967;BME280;17649;51.836;8.330;2022-11-15T13:35:20;100064.84;;;16.51;100.00
30967;BME280;17649;51.836;8.330;2022-11-15T13:41:28;100050.56;;;16.55;100.00
30967;BME280;17649;51.836;8.330;2022-11-15T13:44:30;100054.78;;;16.36;100.00
30967;BME280;17649;51.836;8.330;2022-11-15T13:47:31;100048.34;;;16.40;100.00
30967;BME280;17649;51.836;8.330;2022-11-15T13:50:32;100050.69;;;16.44;100.00
30967;BME280;17649;51.836;8.330;2022-11-15T13:53:33;100044.09;;;16.49;100.00
30967;BME280;17649;51.836;8.330;2022-11-15T13:56:36;100041.22;;;16.62;100.00
30967;BME280;17649;51.836;8.330;2022-11-15T13:59:44;100037.38;;;16.76;100.00
30967;BME280;17649;51.836;8.330;2022-11-15T14:02:44;100031.75;;;16.99;100.00
30967;BME280;17649;51.836;8.330;2022-11-15T14:06:04;100032.28;;;17.13;100.00
30967;BME280;17649;51.836;8.330;2022-11-15T14:15:32;100025.28;;;16.75;100.00
30967;BME280;17649;51.836;8.330;2022-11-15T14:18:40;100027.75;;;16.95;100.00
30967;BME280;17649;51.836;8.330;2022-11-15T14:31:15;100003.53;;;16.35;100.00
30967;BME280;17649;51.836;8.330;2022-11-15T14:34:15;100001.47;;;16.29;100.00
30967;BME280;17649;51.836;8.330;2022-11-15T14:37:24;100001.59;;;16.08;100.00
30967;BME280;17649;51.836;8.330;2022-11-15T14:40:24;99999.03;;;15.88;100.00
30967;BME280;17649;51.836;8.330;2022-11-15T14:43:24;100002.47;;;15.78;100.00
30967;BME280;17649;51.836;8.330;2022-11-15T14:46:28;100000.66;;;15.69;100.00
30967;BME280;17649;51.836;8.330;2022-11-15T14:49:28;99997.63;;;15.64;100.00
30967;BME280;17649;51.836;8.330;2022-11-15T14:52:29;99994.56;;;15.59;100.00
30967;BME280;17649;51.836;8.330;2022-11-15T14:55:30;99999.19;;;15.56;100.00
30967;BME280;17649;51.836;8.330;2022-11-15T14:58:32;99993.41;;;15.52;100.00
30967;BME280;17649;51.836;8.330;2022-11-15T15:01:32;99992.47;;;15.53;100.00
30967;BME280;17649;51.836;8.330;2022-11-15T15:04:32;99980.31;;;15.63;100.00
30967;BME280;17649;51.836;8.330;2022-11-15T15:07:32;99989.03;;;15.52;100.00
30967;BME280;17649;51.836;8.330;2022-11-15T15:10:40;99983.63;;;15.44;100.00
30967;BME280;17649;51.836;8.330;2022-11-15T15:13:40;99982.66;;;15.36;100.00
30967;BME280;17649;51.836;8.330;2022-11-15T15:16:40;99978.31;;;15.25;100.00
30967;BME280;17649;51.836;8.330;2022-11-15T15:19:41;99977.72;;;15.12;100.00
30967;BME280;17649;51.836;8.330;2022-11-15T15:25:52;99967.81;;;14.85;100.00
30967;BME280;17649;51.836;8.330;2022-11-15T15:46:34;99939.06;;;13.90;100.00
30967;BME280;17649;51.836;8.330;2022-11-15T15:56:37;99934.25;;;13.75;100.00
30967;BME280;17649;51.836;8.330;2022-11-15T15:59:38;99931.09;;;13.71;100.00
30967;BME280;17649;51.836;8.330;2022-11-15T16:02:39;99922.59;;;13.58;100.00
30967;BME280;17649;51.836;8.330;2022-11-15T16:12:54;99919.53;;;13.30;100.00
30967;BME280;17649;51.836;8.330;2022-11-15T16:16:04;99913.38;;;13.20;100.00
30967;BME280;17649;51.836;8.330;2022-11-15T16:23:54;99913.38;;;12.98;100.00
30967;BME280;17649;51.836;8.330;2022-11-15T16:26:54;99915.69;;;12.90;100.00
30967;BME280;17649;51.836;8.330;2022-11-15T16:59:18;99885.00;;;12.72;100.00
30967;BME280;17649;51.836;8.330;2022-11-15T17:05:51;99885.97;;;12.82;100.00
30967;BME280;17649;51.836;8.330;2022-11-15T17:42:04;99860.50;;;13.21;100.00
30967;BME280;17649;51.836;8.330;2022-11-15T17:45:17;99861.31;;;13.22;100.00
30967;BME280;17649;51.836;8.330;2022-11-15T17:48:23;99862.38;;;13.30;100.00
30967;BME280;17649;51.836;8.330;2022-11-15T17:51:27;99858.00;;;13.31;100.00
30967;BME280;17649;51.836;8.330;2022-11-15T17:58:37;99849.59;;;13.38;100.00
30967;BME280;17649;51.836;8.330;2022-11-15T18:01:49;99850.09;;;13.32;100.00
30967;BME280;17649;51.836;8.330;2022-11-15T18:05:11;99850.78;;;13.34;100.00
30967;BME280;17649;51.836;8.330;2022-11-15T18:08:17;99844.88;;;13.43;100.00
30967;BME280;17649;51.836;8.330;2022-11-15T18:15:08;99828.72;;;13.40;100.00
30967;BME280;17649;51.836;8.330;2022-11-15T18:18:08;99842.84;;;13.47;100.00
30967;BME280;17649;51.836;8.330;2022-11-15T18:21:09;99836.59;;;13.50;100.00
30967;BME280;17649;51.836;8.330;2022-11-15T18:24:10;99830.91;;;13.56;100.00
30967;BME280;17649;51.836;8.330;2022-11-15T18:27:10;99831.88;;;13.55;100.00
30967;BME280;17649;51.836;8.330;2022-11-15T18:30:10;99831.75;;;13.56;100.00
30967;BME280;17649;51.836;8.330;2022-11-15T18:33:10;99823.81;;;13.58;100.00
30967;BME280;17649;51.836;8.330;2022-11-15T18:36:12;99817.78;;;13.57;100.00
30967;BME280;17649;51.836;8.330;2022-11-15T18:39:12;99819.56;;;13.57;100.00
30967;BME280;17649;51.836;8.330;2022-11-15T18:42:15;99819.09;;;13.52;100.00
30967;BME280;17649;51.836;8.330;2022-11-15T18:45:15;99820.53;;;13.56;100.00
30967;BME280;17649;51.836;8.330;2022-11-15T18:48:18;99812.72;;;13.56;100.00
30967;BME280;17649;51.836;8.330;2022-11-15T18:51:22;99819.34;;;13.49;100.00
30967;BME280;17649;51.836;8.330;2022-11-15T18:54:24;99821.00;;;13.50;100.00
30967;BME280;17649;51.836;8.330;2022-11-15T18:57:24;99818.28;;;13.51;100.00
30967;BME280;17649;51.836;8.330;2022-11-15T19:00:26;99814.59;;;13.54;100.00
30967;BME280;17649;51.836;8.330;2022-11-15T19:03:34;99803.63;;;13.50;100.00
30967;BME280;17649;51.836;8.330;2022-11-15T19:34:03;99797.97;;;13.45;100.00
30967;BME280;17649;51.836;8.330;2022-11-15T19:56:26;99778.88;;;13.35;100.00
30967;BME280;17649;51.836;8.330;2022-11-15T19:59:51;99772.16;;;13.32;100.00
30967;BME280;17649;51.836;8.330;2022-11-15T20:06:55;99760.81;;;13.33;100.00
30967;BME280;17649;51.836;8.330;2022-11-15T20:10:03;99758.91;;;13.35;100.00
30967;BME280;17649;51.836;8.330;2022-11-15T20:13:06;99761.25;;;13.38;100.00
30967;BME280;17649;51.836;8.330;2022-11-15T20:16:14;99754.28;;;13.39;100.00
30967;BME280;17649;51.836;8.330;2022-11-15T20:19:15;99749.00;;;13.40;100.00
30967;BME280;17649;51.836;8.330;2022-11-15T20:22:21;99748.03;;;13.41;100.00
30967;BME280;17649;51.836;8.330;2022-11-15T20:25:27;99740.81;;;13.45;100.00
30967;BME280;17649;51.836;8.330;2022-11-15T20:28:28;99737.38;;;13.45;100.00
30967;BME280;17649;51.836;8.330;2022-11-15T20:31:29;99739.53;;;13.39;100.00
30967;BME280;17649;51.836;8.330;2022-11-15T20:34:38;99732.06;;;13.46;100.00
30967;BME280;17649;51.836;8.330;2022-11-15T20:37:45;99736.56;;;13.44;100.00
30967;BME280;17649;51.836;8.330;2022-11-15T20:40:51;99739.03;;;13.46;100.00
30967;BME280;17649;51.836;8.330;2022-11-15T20:43:57;99740.81;;;13.45;100.00
30967;BME280;17649;51.836;8.330;2022-11-15T20:47:01;99729.59;;;13.45;100.00
30967;BME280;17649;51.836;8.330;2022-11-15T20:50:05;99735.53;;;13.35;100.00
30967;BME280;17649;51.836;8.330;2022-11-15T20:53:09;99731.50;;;13.42;100.00
30967;BME280;17649;51.836;8.330;2022-11-15T20:56:16;99727.38;;;13.40;100.00
30967;BME280;17649;51.836;8.330;2022-11-15T20:59:17;99718.97;;;13.36;100.00
30967;BME280;17649;51.836;8.330;2022-11-15T21:02:17;99713.31;;;13.42;100.00
30967;BME280;17649;51.836;8.330;2022-11-15T21:05:18;99721.72;;;13.35;100.00
30967;BME280;17649;51.836;8.330;2022-11-15T21:08:21;99718.28;;;13.34;100.00
30967;BME280;17649;51.836;8.330;2022-11-15T21:11:25;99722.19;;;13.40;100.00
30967;BME280;17649;51.836;8.330;2022-11-15T21:14:47;99721.66;;;13.46;100.00
30967;BME280;17649;51.836;8.330;2022-11-15T21:18:01;99721.28;;;13.51;100.00
30967;BME280;17649;51.836;8.330;2022-11-15T21:21:09;99726.50;;;13.51;100.00
30967;BME280;17649;51.836;8.330;2022-11-15T21:24:09;99718.94;;;13.48;100.00
30967;BME280;17649;51.836;8.330;2022-11-15T21:27:29;99723.22;;;13.37;100.00
30967;BME280;17649;51.836;8.330;2022-11-15T21:30:32;99715.81;;;13.33;100.00